Time;durP1;ratioP1;P1;durP2;ratioP2;P2;SDS_P1;SDS_P2;PMS_P1;PMS_P2;Temp;Humidity;BMP_temperature;BMP_pressure;BME280_temperature;BME280_humidity;BME280_pressure;Samples;Min_cycle;Max_cycle;Signal;HPM_P1;HPM_P2
2020/12/11 00:00:22;;;;;;;26.35;17.60;;;0.80;77.80;;;;;;5034971;28;20100;-74
2020/12/11 00:02:48;;;;;;;26.42;16.30;;;0.80;77.90;;;;;;5034841;28;20577;-75
2020/12/11 00:05:14;;;;;;;25.35;16.38;;;0.70;78.00;;;;;;5035026;28;20061;-76
2020/12/11 00:07:41;;;;;;;28.80;16.77;;;0.70;78.10;;;;;;5017162;28;20040;-74
2020/12/11 00:10:10;;;;;;;27.05;16.42;;;0.60;78.00;;;;;;5034757;28;20044;-74
2020/12/11 00:12:36;;;;;;;28.67;16.70;;;0.60;78.10;;;;;;5034782;28;20026;-75
2020/12/11 00:15:05;;;;;;;27.55;16.30;;;0.60;78.10;;;;;;5034936;28;20382;-75
2020/12/11 00:17:30;;;;;;;23.85;15.23;;;0.60;78.00;;;;;;5034605;28;20036;-74
2020/12/11 00:19:56;;;;;;;26.95;15.73;;;0.50;78.30;;;;;;5034743;28;20386;-75
2020/12/11 00:22:22;;;;;;;28.30;16.17;;;0.50;78.50;;;;;;5034533;28;20029;-75
2020/12/11 00:24:49;;;;;;;26.58;15.93;;;0.40;78.60;;;;;;5016918;28;20470;-74
2020/12/11 00:27:15;;;;;;;25.83;15.85;;;0.40;78.80;;;;;;5034530;28;20156;-75
2020/12/11 00:29:41;;;;;;;27.48;15.90;;;0.30;78.90;;;;;;5034689;28;20056;-75
2020/12/11 00:32:07;;;;;;;22.98;14.63;;;0.30;79.10;;;;;;5034507;28;20465;-75
2020/12/11 00:34:33;;;;;;;22.05;13.90;;;0.30;79.10;;;;;;5034462;28;20097;-75
2020/12/11 00:36:59;;;;;;;24.08;15.50;;;0.30;79.10;;;;;;5034642;28;20112;-75
2020/12/11 00:39:25;;;;;;;23.98;15.55;;;0.30;79.10;;;;;;5035262;28;20057;-75
2020/12/11 00:41:50;;;;;;;26.27;15.65;;;0.30;79.20;;;;;;5035574;28;20031;-75
2020/12/11 00:44:16;;;;;;;26.02;16.20;;;0.30;79.20;;;;;;5033543;28;20120;-75
2020/12/11 00:46:41;;;;;;;24.27;15.75;;;0.30;79.30;;;;;;5034757;28;20017;-73
2020/12/11 00:49:07;;;;;;;24.85;15.57;;;0.30;79.40;;;;;;5016580;28;20057;-73
2020/12/11 00:51:32;;;;;;;27.65;16.33;;;0.20;79.40;;;;;;5034795;28;20025;-73
2020/12/11 00:53:58;;;;;;;27.88;17.42;;;0.10;79.80;;;;;;5034217;28;20025;-73
2020/12/11 00:56:24;;;;;;;28.75;17.05;;;0.20;80.00;;;;;;5033819;28;20057;-74
2020/12/11 00:58:50;;;;;;;26.27;16.45;;;0.10;80.30;;;;;;5034125;28;20026;-74
2020/12/11 01:01:15;;;;;;;24.73;15.93;;;0.10;80.60;;;;;;5016164;28;20128;-74
2020/12/11 01:03:41;;;;;;;26.98;16.20;;;0.00;80.50;;;;;;5033896;28;20131;-74
2020/12/11 01:06:07;;;;;;;26.42;16.33;;;0.00;80.70;;;;;;5033810;28;20036;-74
2020/12/11 01:08:33;;;;;;;25.65;15.85;;;-0.10;80.90;;;;;;5033211;28;20521;-73
2020/12/11 01:10:58;;;;;;;24.50;15.88;;;-0.10;80.90;;;;;;5033713;28;20486;-75
2020/12/11 01:13:24;;;;;;;30.20;15.98;;;-0.10;80.90;;;;;;5015821;28;20034;-74
2020/12/11 01:15:49;;;;;;;26.08;15.80;;;-0.20;80.90;;;;;;5033555;28;20580;-75
2020/12/11 01:18:15;;;;;;;27.05;15.75;;;-0.10;81.10;;;;;;5033525;28;20087;-74
2020/12/11 01:20:40;;;;;;;26.58;16.08;;;-0.20;81.00;;;;;;5033440;28;20034;-74
2020/12/11 01:23:06;;;;;;;26.27;16.15;;;-0.10;81.00;;;;;;5033411;28;20069;-74
2020/12/11 01:25:32;;;;;;;25.27;15.90;;;-0.10;81.00;;;;;;5033364;28;20081;-74
2020/12/11 01:27:57;;;;;;;26.33;16.58;;;-0.10;81.10;;;;;;5033430;28;20100;-74
2020/12/11 01:30:23;;;;;;;26.40;16.55;;;-0.20;81.10;;;;;;5015627;28;20024;-73
2020/12/11 01:32:49;;;;;;;24.70;15.43;;;-0.20;81.20;;;;;;5033443;28;20076;-74
2020/12/11 01:35:14;;;;;;;24.85;15.23;;;-0.20;81.30;;;;;;5033246;28;20091;-73
2020/12/11 01:37:40;;;;;;;25.45;15.75;;;-0.20;81.30;;;;;;5033334;28;20029;-73
2020/12/11 01:40:06;;;;;;;22.70;14.70;;;-0.20;81.30;;;;;;5033170;28;20116;-74
2020/12/11 01:42:31;;;;;;;27.02;16.48;;;-0.20;81.20;;;;;;5033092;28;20034;-74
2020/12/11 01:44:57;;;;;;;24.98;15.88;;;-0.20;80.90;;;;;;5033086;28;20022;-74
2020/12/11 01:47:23;;;;;;;26.00;16.00;;;-0.30;80.90;;;;;;5033079;28;20021;-74
2020/12/11 01:49:51;;;;;;;25.65;16.05;;;-0.30;80.90;;;;;;5015249;28;20022;-74
2020/12/11 01:52:17;;;;;;;24.35;15.40;;;-0.40;81.00;;;;;;5033065;28;20293;-73
2020/12/11 01:54:44;;;;;;;26.20;15.60;;;-0.30;81.60;;;;;;5015064;28;20034;-74
2020/12/11 01:57:19;;;;;;;23.63;15.40;;;-0.30;80.80;;;;;;5033036;28;20025;-74
2020/12/11 01:59:51;;;;;;;25.52;15.40;;;-0.40;80.60;;;;;;5032908;28;20431;-73
2020/12/11 02:02:18;;;;;;;25.42;15.38;;;-0.30;80.70;;;;;;5032674;28;20044;-74
2020/12/11 02:04:44;;;;;;;24.63;14.98;;;-0.30;80.80;;;;;;5032899;28;20108;-74
2020/12/11 02:07:10;;;;;;;27.25;15.93;;;-0.30;80.50;;;;;;5032934;28;20550;-74
2020/12/11 02:09:36;;;;;;;25.92;16.05;;;-0.40;80.30;;;;;;5032739;28;20036;-74
2020/12/11 02:12:03;;;;;;;25.20;15.50;;;-0.40;80.40;;;;;;5032920;28;20104;-74
2020/12/11 02:14:29;;;;;;;25.45;15.50;;;-0.40;80.30;;;;;;5032739;28;20072;-74
2020/12/11 02:17:03;;;;;;;25.70;15.77;;;-0.40;80.00;;;;;;5032921;28;20026;-74
2020/12/11 02:19:33;;;;;;;24.60;14.70;;;-0.40;79.90;;;;;;5033800;28;20374;-74
2020/12/11 02:22:06;;;;;;;27.95;16.48;;;-0.50;80.20;;;;;;5036822;28;20063;-74
2020/12/11 02:24:33;;;;;;;27.58;15.95;;;-0.60;80.50;;;;;;5036694;28;20053;-73
2020/12/11 02:27:00;;;;;;;27.55;16.05;;;-0.50;80.90;;;;;;5036723;28;20022;-74
2020/12/11 02:29:26;;;;;;;28.30;17.08;;;-0.50;81.10;;;;;;5036596;28;20049;-73
2020/12/11 02:31:53;;;;;;;28.00;16.70;;;-0.60;81.10;;;;;;5036625;28;20500;-74
2020/12/11 02:34:19;;;;;;;30.75;16.52;;;-0.50;81.30;;;;;;5036516;28;20029;-74
2020/12/11 02:36:45;;;;;;;28.23;16.27;;;-0.50;81.10;;;;;;5036626;28;20489;-74
2020/12/11 02:39:10;;;;;;;27.60;15.52;;;-0.50;80.90;;;;;;5018892;28;20029;-74
2020/12/11 02:41:36;;;;;;;30.58;17.83;;;-0.50;80.90;;;;;;5036514;28;20029;-74
2020/12/11 02:44:02;;;;;;;29.45;16.90;;;-0.60;81.00;;;;;;5036381;28;20095;-74
2020/12/11 02:46:28;;;;;;;30.67;17.33;;;-0.60;81.10;;;;;;5036287;28;20474;-74
2020/12/11 02:48:55;;;;;;;30.67;17.17;;;-0.60;81.10;;;;;;5036354;28;20030;-74
2020/12/11 02:51:21;;;;;;;26.75;15.15;;;-0.60;80.90;;;;;;5018506;28;20478;-74
2020/12/11 02:53:50;;;;;;;28.92;17.27;;;-0.60;81.00;;;;;;5036253;28;20109;-74
2020/12/11 02:56:23;;;;;;;29.88;17.20;;;-0.60;81.10;;;;;;5036144;28;20030;-74
2020/12/11 02:58:49;;;;;;;29.15;17.00;;;-0.70;81.10;;;;;;5036088;28;20026;-73
2020/12/11 03:01:15;;;;;;;26.63;15.05;;;-0.70;81.50;;;;;;5036147;28;20029;-74
2020/12/11 03:03:42;;;;;;;31.98;17.40;;;-0.70;81.50;;;;;;5018115;28;20107;-74
2020/12/11 03:06:07;;;;;;;28.38;16.40;;;-0.60;81.50;;;;;;5036032;28;20474;-74
2020/12/11 03:08:33;;;;;;;29.88;16.35;;;-0.60;81.40;;;;;;5035860;28;20036;-74
2020/12/11 03:10:59;;;;;;;31.48;17.67;;;-0.60;81.20;;;;;;5035728;28;20021;-74
2020/12/11 03:13:25;;;;;;;29.30;16.52;;;-0.70;81.20;;;;;;5035877;28;20029;-73
2020/12/11 03:15:51;;;;;;;29.67;16.42;;;-0.70;81.20;;;;;;5035832;28;20398;-74
2020/12/11 03:18:16;;;;;;;27.05;15.93;;;-0.70;81.00;;;;;;5035840;28;20502;-74
2020/12/11 03:20:42;;;;;;;29.63;16.83;;;-0.60;80.80;;;;;;5035792;28;20103;-74
2020/12/11 03:23:08;;;;;;;27.58;15.90;;;-0.50;80.70;;;;;;5035663;28;20037;-74
2020/12/11 03:25:33;;;;;;;29.92;15.95;;;-0.50;80.30;;;;;;5035522;28;20025;-74
2020/12/11 03:27:59;;;;;;;26.55;15.27;;;-0.60;80.00;;;;;;5035590;28;20029;-74
2020/12/11 03:30:24;;;;;;;28.58;16.25;;;-0.50;80.90;;;;;;5035495;28;20017;-74
2020/12/11 03:32:50;;;;;;;28.60;16.83;;;-0.60;79.90;;;;;;5035066;28;20389;-74
2020/12/11 03:35:16;;;;;;;28.58;16.55;;;-0.60;79.90;;;;;;5035479;28;20036;-74
2020/12/11 03:37:41;;;;;;;30.05;17.45;;;-0.60;80.00;;;;;;5035460;28;20071;-74
2020/12/11 03:40:07;;;;;;;29.58;16.42;;;-0.60;80.00;;;;;;5035330;28;20025;-74
2020/12/11 03:42:33;;;;;;;30.23;16.73;;;-0.60;79.80;;;;;;5035325;28;20041;-74
2020/12/11 03:44:59;;;;;;;29.65;16.65;;;-0.60;79.90;;;;;;5035402;28;20381;-74
2020/12/11 03:47:25;;;;;;;28.58;15.45;;;-0.70;80.00;;;;;;5017467;28;20097;-75
2020/12/11 03:49:50;;;;;;;27.88;15.52;;;-0.70;79.70;;;;;;5035196;28;20079;-75
2020/12/11 03:52:16;;;;;;;29.48;16.13;;;-0.60;79.60;;;;;;5035021;28;20104;-74
2020/12/11 03:54:41;;;;;;;30.33;16.77;;;-0.60;79.20;;;;;;5035194;28;20490;-74
2020/12/11 03:57:07;;;;;;;28.92;15.65;;;-0.60;78.90;;;;;;5035276;28;20018;-74
2020/12/11 03:59:33;;;;;;;29.25;15.55;;;-0.60;78.70;;;;;;5035025;28;20155;-74
2020/12/11 04:01:58;;;;;;;27.63;14.52;;;-0.60;78.70;;;;;;5034842;28;20034;-74
2020/12/11 04:04:24;;;;;;;26.65;14.38;;;-0.60;78.70;;;;;;5034981;28;20374;-74
2020/12/11 04:06:50;;;;;;;27.25;15.05;;;-0.60;78.60;;;;;;5034879;28;20485;-74
2020/12/11 04:09:15;;;;;;;23.67;13.70;;;-0.60;78.60;;;;;;5034872;28;20040;-74
2020/12/11 04:11:41;;;;;;;24.25;14.05;;;-0.50;78.60;;;;;;5034673;28;20563;-74
2020/12/11 04:14:06;;;;;;;25.33;14.15;;;-0.50;78.20;;;;;;5034613;28;20017;-74
2020/12/11 04:16:33;;;;;;;23.15;12.95;;;-0.40;78.00;;;;;;5034561;28;20053;-74
2020/12/11 04:19:00;;;;;;;26.08;14.55;;;-0.50;77.70;;;;;;5034518;28;20050;-74
2020/12/11 04:21:25;;;;;;;27.35;14.38;;;-0.50;77.50;;;;;;5034630;28;20104;-74
2020/12/11 04:23:51;;;;;;;29.60;15.10;;;-0.50;77.50;;;;;;5034613;28;20132;-74
2020/12/11 04:26:17;;;;;;;26.08;14.23;;;-0.50;77.50;;;;;;5034541;28;20044;-73
2020/12/11 04:28:42;;;;;;;27.33;14.73;;;-0.50;77.40;;;;;;5034553;28;20037;-76
2020/12/11 04:31:08;;;;;;;24.33;13.65;;;-0.50;77.20;;;;;;5034516;28;20071;-74
2020/12/11 04:33:33;;;;;;;25.48;13.75;;;-0.60;77.10;;;;;;5034389;28;20104;-73
2020/12/11 04:35:59;;;;;;;26.42;14.57;;;-0.60;77.30;;;;;;5016712;28;20370;-74
2020/12/11 04:38:25;;;;;;;27.85;14.35;;;-0.70;77.50;;;;;;5016490;28;20049;-74
2020/12/11 04:40:58;;;;;;;25.23;14.35;;;-0.60;77.50;;;;;;5034338;28;20061;-74
2020/12/11 04:43:25;;;;;;;25.55;14.65;;;-0.70;77.70;;;;;;5033018;28;20478;-74
2020/12/11 04:45:51;;;;;;;26.67;14.65;;;-0.70;77.80;;;;;;5034212;28;20025;-74
2020/12/11 04:48:16;;;;;;;26.35;14.45;;;-0.70;77.70;;;;;;5033991;28;20083;-74
2020/12/11 04:50:44;;;;;;;25.60;14.82;;;-0.70;78.00;;;;;;5034295;28;20025;-74
2020/12/11 04:53:14;;;;;;;35.13;19.02;;;-0.80;77.80;;;;;;5016443;28;20068;-73
2020/12/11 04:55:42;;;;;;;28.30;16.27;;;-0.80;77.90;;;;;;5034009;28;20053;-74
2020/12/11 04:58:15;;;;;;;33.05;17.38;;;-0.80;77.90;;;;;;5033982;28;20044;-74
2020/12/11 05:00:41;;;;;;;29.90;15.52;;;-0.80;77.90;;;;;;5033948;28;20021;-74
2020/12/11 05:03:09;;;;;;;28.42;15.98;;;-0.80;77.90;;;;;;5033633;28;20081;-74
2020/12/11 05:05:35;;;;;;;27.70;15.63;;;-0.80;77.60;;;;;;5033811;28;20022;-74
2020/12/11 05:08:15;;;;;;;27.60;14.57;;;-0.80;77.50;;;;;;5033769;28;20035;-74
2020/12/11 05:10:40;;;;;;;29.35;15.27;;;-0.80;77.40;;;;;;5033598;28;20079;-74
2020/12/11 05:13:23;;;;;;;24.88;14.15;;;-0.90;77.40;;;;;;5033510;28;20022;-74
2020/12/11 05:16:11;;;;;;;26.05;13.95;;;-0.90;77.40;;;;;;5033525;28;20026;-74
2020/12/11 05:18:38;;;;;;;25.40;14.38;;;-0.90;77.50;;;;;;5033299;28;20481;-75
2020/12/11 05:21:21;;;;;;;26.60;14.02;;;-0.90;77.50;;;;;;5033561;28;20048;-74
2020/12/11 05:24:02;;;;;;;26.65;14.65;;;-0.90;77.50;;;;;;5033477;28;20033;-73
2020/12/11 05:26:29;;;;;;;26.20;14.82;;;-1.00;77.50;;;;;;5033363;28;20021;-74
2020/12/11 05:28:55;;;;;;;24.48;14.13;;;-0.90;77.80;;;;;;5033330;28;20269;-74
2020/12/11 05:31:21;;;;;;;29.77;14.18;;;-1.00;77.70;;;;;;5033353;28;20386;-74
2020/12/11 05:34:13;;;;;;;22.38;13.07;;;-1.00;77.70;;;;;;5033230;28;20029;-77
2020/12/11 05:36:46;;;;;;;25.88;13.98;;;-0.90;77.80;;;;;;5033102;28;20033;-74
2020/12/11 05:39:12;;;;;;;23.65;13.98;;;-1.00;77.60;;;;;;5033398;28;20485;-75
2020/12/11 05:41:38;;;;;;;29.98;15.18;;;-1.00;77.70;;;;;;5033142;28;20108;-74
2020/12/11 05:44:42;;;;;;;24.70;14.13;;;-1.10;78.00;;;;;;5032986;28;20582;-75
2020/12/11 05:47:22;;;;;;;26.40;14.75;;;-1.10;78.30;;;;;;5032522;28;20562;-75
2020/12/11 05:49:49;;;;;;;24.45;13.68;;;-1.20;78.40;;;;;;5033274;28;20497;-75
2020/12/11 05:52:15;;;;;;;28.25;14.57;;;-1.20;78.60;;;;;;5033203;28;20032;-75
2020/12/11 05:54:49;;;;;;;26.50;14.15;;;-1.10;78.50;;;;;;5032894;28;20025;-75
2020/12/11 05:57:16;;;;;;;25.80;14.00;;;-1.10;78.40;;;;;;5033011;28;20363;-74
2020/12/11 05:59:43;;;;;;;27.25;14.82;;;-1.20;78.50;;;;;;5033300;28;20032;-75
2020/12/11 06:02:11;;;;;;;29.52;15.20;;;-1.10;78.70;;;;;;5033066;28;20144;-74
2020/12/11 06:04:37;;;;;;;26.98;15.15;;;-1.20;78.50;;;;;;5037716;28;20030;-77
2020/12/11 06:07:13;;;;;;;23.95;13.65;;;-1.10;79.40;;;;;;5042225;28;20020;-75
2020/12/11 06:09:39;;;;;;;;;;;-1.10;78.60;;;;;;5045196;28;20025;-74
2020/12/11 06:12:06;;;;;;;26.77;13.38;;;-1.10;78.70;;;;;;5043010;28;19940;-75
2020/12/11 06:14:55;;;;;;;27.25;15.60;;;-1.10;78.90;;;;;;5038242;28;20093;-75
2020/12/11 06:17:24;;;;;;;26.75;14.70;;;-1.10;79.00;;;;;;5034541;28;20025;-75
2020/12/11 06:19:50;;;;;;;29.27;15.57;;;-1.10;79.00;;;;;;5035439;28;20026;-75
2020/12/11 06:22:20;;;;;;;28.08;14.73;;;-1.20;79.00;;;;;;5035181;28;20025;-75
2020/12/11 06:24:46;;;;;;;30.02;16.02;;;-1.30;79.30;;;;;;5017520;28;20033;-75
2020/12/11 06:27:11;;;;;;;29.85;15.13;;;-1.20;79.50;;;;;;5037139;28;20493;-75
2020/12/11 06:29:40;;;;;;;28.15;14.90;;;-1.20;79.40;;;;;;5033662;28;20115;-75
2020/12/11 06:32:07;;;;;;;27.45;14.30;;;-1.20;79.30;;;;;;5037376;28;20032;-74
2020/12/11 06:34:33;;;;;;;31.13;16.02;;;-1.20;79.40;;;;;;5016352;28;20120;-75
2020/12/11 06:36:58;;;;;;;27.35;14.98;;;-1.20;79.50;;;;;;5033917;28;20064;-74
2020/12/11 06:39:45;;;;;;;26.48;14.45;;;-1.20;79.60;;;;;;5034022;28;20128;-75
2020/12/11 06:42:37;;;;;;;28.88;16.35;;;-1.20;79.90;;;;;;5034326;28;20049;-74
2020/12/11 06:45:25;;;;;;;27.08;14.52;;;-1.30;80.20;;;;;;5033804;28;20026;-76
2020/12/11 06:48:00;;;;;;;30.15;15.20;;;-1.30;80.50;;;;;;5036359;28;20017;-76
2020/12/11 06:50:30;;;;;;;;;;;-1.30;80.50;;;;;;5033387;28;20034;-74
2020/12/11 06:52:56;;;;;;;30.33;14.60;;;-1.20;80.60;;;;;;5039157;28;19909;-73
2020/12/11 06:55:22;;;;;;;28.80;14.95;;;-1.20;80.80;;;;;;5032212;28;20025;-78
2020/12/11 06:57:49;;;;;;;27.48;14.93;;;-1.10;80.90;;;;;;5033482;28;20053;-84
2020/12/11 07:00:32;;;;;;;30.13;16.23;;;-1.10;80.80;;;;;;5032549;28;20026;-75
2020/12/11 07:03:15;;;;;;;26.83;14.55;;;-1.10;80.40;;;;;;5032248;28;20056;-74
2020/12/11 07:05:41;;;;;;;29.73;15.30;;;-1.20;80.30;;;;;;5032235;28;20021;-74
2020/12/11 07:08:11;;;;;;;32.72;15.23;;;-1.20;80.50;;;;;;5035706;28;20037;-74
2020/12/11 07:10:37;;;;;;;28.95;13.90;;;-1.20;80.60;;;;;;5036523;28;20025;-81
2020/12/11 07:13:07;;;;;;;30.02;13.85;;;-1.20;80.90;;;;;;5036204;28;20074;-74
2020/12/11 07:15:33;;;;;;;27.92;14.55;;;-1.10;81.30;;;;;;5035710;28;20493;-73
2020/12/11 07:17:58;;;;;;;30.27;14.35;;;-1.10;81.10;;;;;;5037068;28;20028;-74
2020/12/11 07:20:24;;;;;;;30.13;15.02;;;-1.00;80.80;;;;;;5036126;28;20022;-74
2020/12/11 07:22:50;;;;;;;25.88;14.95;;;-1.00;80.70;;;;;;5035365;28;20025;-73
2020/12/11 07:25:16;;;;;;;28.27;14.88;;;-0.90;80.60;;;;;;5035711;28;20083;-73
2020/12/11 07:27:55;;;;;;;27.48;14.70;;;-0.80;80.10;;;;;;5036170;28;20022;-78
2020/12/11 07:30:20;;;;;;;26.52;14.25;;;-0.80;79.70;;;;;;5035678;28;20105;-75
2020/12/11 07:32:51;;;;;;;26.08;13.70;;;-0.70;79.50;;;;;;5035640;28;20060;-75
2020/12/11 07:35:17;;;;;;;27.38;15.02;;;-0.70;79.20;;;;;;5035887;28;20018;-80
2020/12/11 07:37:54;;;;;;;25.45;14.48;;;-0.60;78.70;;;;;;5017871;28;20048;-74
2020/12/11 07:40:21;;;;;;;31.83;15.00;;;-0.60;78.50;;;;;;5035220;28;20105;-74
2020/12/11 07:42:51;;;;;;;24.15;13.98;;;-0.60;78.20;;;;;;5017354;28;20034;-75
2020/12/11 07:45:25;;;;;;;27.17;15.25;;;-0.50;78.20;;;;;;5035157;28;20051;-76
2020/12/11 07:47:52;;;;;;;26.60;14.43;;;-0.50;78.10;;;;;;5035880;28;20091;-82
2020/12/11 07:50:21;;;;;;;23.27;13.52;;;-0.50;78.00;;;;;;5035160;28;20026;-75
2020/12/11 07:52:46;;;;;;;24.50;14.32;;;-0.50;78.00;;;;;;5035165;28;20021;-74
2020/12/11 07:55:12;;;;;;;23.80;13.98;;;-0.40;77.70;;;;;;5034964;28;20025;-74
2020/12/11 07:57:38;;;;;;;26.75;14.65;;;-0.30;77.20;;;;;;5034988;28;20029;-74
2020/12/11 08:00:06;;;;;;;24.88;14.10;;;-0.30;76.80;;;;;;5035086;28;20017;-74
2020/12/11 08:02:34;;;;;;;24.60;13.93;;;-0.30;76.70;;;;;;5034811;28;20489;-77
2020/12/11 08:04:59;;;;;;;23.88;13.77;;;-0.40;76.60;;;;;;5035245;28;20106;-77
2020/12/11 08:07:29;;;;;;;26.80;14.20;;;-0.30;76.70;;;;;;5035085;28;20029;-76
2020/12/11 08:10:12;;;;;;;23.95;13.35;;;-0.20;76.80;;;;;;5036209;28;20091;-77
2020/12/11 08:12:39;;;;;;;21.95;12.18;;;-0.20;76.80;;;;;;5038208;28;20022;-76
2020/12/11 08:15:06;;;;;;;20.65;11.88;;;-0.10;76.70;;;;;;5035431;28;20049;-75
2020/12/11 08:17:32;;;;;;;22.98;12.82;;;0.00;76.50;;;;;;5017480;28;20021;-77
2020/12/11 08:20:08;;;;;;;22.60;12.82;;;0.10;76.20;;;;;;5035472;28;20017;-80
2020/12/11 08:22:42;;;;;;;22.05;12.70;;;0.10;75.90;;;;;;5017875;28;20061;-80
2020/12/11 08:25:26;;;;;;;20.98;11.95;;;0.10;75.70;;;;;;5035579;28;20021;-78
2020/12/11 08:27:52;;;;;;;23.88;13.13;;;0.10;75.50;;;;;;5035222;28;20021;-83
2020/12/11 08:30:18;;;;;;;22.35;12.75;;;0.10;75.30;;;;;;5036157;28;20441;-78
2020/12/11 08:32:46;;;;;;;24.42;12.95;;;0.10;75.30;;;;;;5034824;28;20060;-78
2020/12/11 08:35:32;;;;;;;21.05;12.07;;;0.20;75.10;;;;;;5034691;28;20025;-78
2020/12/11 08:37:59;;;;;;;18.33;10.60;;;0.30;75.00;;;;;;5034536;28;20021;-79
2020/12/11 08:40:29;;;;;;;17.92;9.93;;;0.50;74.70;;;;;;5034744;28;20025;-79
2020/12/11 08:48:48;;;;;;;20.85;9.63;;;1.20;72.40;;;;;;5034071;28;20026;-77
2020/12/11 08:51:14;;;;;;;14.85;9.07;;;1.60;75.10;;;;;;5016338;28;20029;-76
2020/12/11 08:53:49;;;;;;;14.85;9.45;;;2.20;77.70;;;;;;5034046;28;20029;-76
2020/12/11 08:56:15;;;;;;;17.98;9.75;;;2.70;74.70;;;;;;5033991;28;20423;-76
2020/12/11 08:58:40;;;;;;;15.57;9.80;;;3.00;72.10;;;;;;5033939;28;20654;-76
2020/12/11 09:01:06;;;;;;;16.13;8.70;;;3.30;70.60;;;;;;5034144;28;20488;-76
2020/12/11 09:03:31;;;;;;;16.20;9.90;;;3.40;68.30;;;;;;5033526;28;20049;-77
2020/12/11 09:05:57;;;;;;;16.48;8.80;;;3.50;68.20;;;;;;5033869;28;20078;-77
2020/12/11 09:08:23;;;;;;;15.48;8.93;;;3.60;68.00;;;;;;5033980;28;20394;-77
2020/12/11 09:10:48;;;;;;;14.85;8.80;;;3.70;66.90;;;;;;5033834;28;20037;-77
2020/12/11 09:13:14;;;;;;;15.77;9.05;;;4.10;68.50;;;;;;5033917;28;20052;-77
2020/12/11 09:15:39;;;;;;;13.85;8.93;;;4.10;64.30;;;;;;5035302;28;20078;-77
2020/12/11 09:18:05;;;;;;;17.48;10.13;;;4.20;63.00;;;;;;5033710;28;20210;-77
2020/12/11 09:20:31;;;;;;;16.63;10.68;;;4.10;61.70;;;;;;5033292;28;20021;-77
2020/12/11 09:22:57;;;;;;;15.60;9.70;;;4.00;61.70;;;;;;5033431;28;20033;-77
2020/12/11 09:25:23;;;;;;;17.33;11.35;;;4.00;61.80;;;;;;5033426;28;20100;-77
2020/12/11 09:27:48;;;;;;;18.80;11.18;;;3.80;61.40;;;;;;5033216;28;20486;-77
2020/12/11 09:30:22;;;;;;;14.18;9.38;;;3.60;62.00;;;;;;5032695;28;20097;-77
2020/12/11 09:35:27;;;;;;;17.27;8.85;;;3.90;63.90;;;;;;5033044;28;20033;-76
2020/12/11 09:37:54;;;;;;;15.82;10.30;;;4.10;64.40;;;;;;5033041;28;20044;-77
2020/12/11 09:40:40;;;;;;;16.25;10.18;;;4.10;62.60;;;;;;5033248;28;20029;-77
2020/12/11 09:45:49;;;;;;;16.73;10.63;;;3.90;60.10;;;;;;5013365;28;20029;-74
2020/12/11 09:48:21;;;;;;;20.30;11.50;;;3.40;61.60;;;;;;5012912;28;20360;-75
2020/12/11 09:55:50;;;;;;;18.33;11.77;;;2.90;63.50;;;;;;5013121;28;20032;-75
2020/12/11 09:58:16;;;;;;;16.08;9.88;;;2.80;64.10;;;;;;5013065;28;20025;-72
2020/12/11 10:00:45;;;;;;;17.33;10.48;;;2.70;64.60;;;;;;5012822;28;20021;-73
2020/12/11 10:03:14;;;;;;;17.02;10.82;;;2.80;65.10;;;;;;5012362;28;20115;-73
2020/12/11 10:05:41;;;;;;;17.67;10.50;;;2.90;65.00;;;;;;5012945;28;20067;-73
2020/12/11 10:08:07;;;;;;;16.52;10.73;;;3.30;65.10;;;;;;5012879;28;20137;-73
2020/12/11 10:10:33;;;;;;;19.20;10.10;;;3.50;64.20;;;;;;5012838;28;20060;-73
2020/12/11 10:12:59;;;;;;;16.85;10.10;;;3.90;63.50;;;;;;4995187;28;20435;-75
2020/12/11 10:15:24;;;;;;;14.02;9.27;;;4.20;62.50;;;;;;5012796;28;20061;-73
2020/12/11 10:17:50;;;;;;;14.80;9.60;;;4.40;61.20;;;;;;5012932;28;20062;-76
2020/12/11 10:20:20;;;;;;;16.02;10.02;;;4.40;59.80;;;;;;5012837;28;20045;-78
2020/12/11 10:22:47;;;;;;;14.88;9.18;;;4.50;59.60;;;;;;5012854;28;20163;-77
2020/12/11 10:25:12;;;;;;;14.73;9.27;;;4.70;59.30;;;;;;5012192;28;20053;-76
2020/12/11 10:27:38;;;;;;;11.38;8.18;;;4.90;59.10;;;;;;5012305;28;20407;-76
2020/12/11 10:30:04;;;;;;;12.80;8.75;;;5.10;58.60;;;;;;5012503;28;20080;-77
2020/12/11 10:32:30;;;;;;;14.30;9.57;;;5.30;57.60;;;;;;5012816;28;20037;-75
2020/12/11 10:34:55;;;;;;;13.60;8.80;;;5.50;56.70;;;;;;5012793;28;20030;-76
2020/12/11 10:37:21;;;;;;;12.77;8.30;;;5.80;55.90;;;;;;5012751;28;20026;-79
2020/12/11 10:39:46;;;;;;;12.52;8.45;;;6.00;55.20;;;;;;5012901;28;20113;-75
2020/12/11 10:42:12;;;;;;;14.95;10.18;;;6.40;54.50;;;;;;5014938;28;20053;-76
2020/12/11 10:44:38;;;;;;;14.00;9.73;;;6.90;53.50;;;;;;4999063;28;20074;-81
2020/12/11 10:47:03;;;;;;;12.35;8.65;;;7.40;52.20;;;;;;5016463;28;20033;-77
2020/12/11 10:49:29;;;;;;;11.20;8.10;;;7.60;50.60;;;;;;5016499;28;20088;-77
2020/12/11 10:51:54;;;;;;;12.32;8.80;;;7.90;49.60;;;;;;5016363;28;20383;-77
2020/12/11 10:54:22;;;;;;;10.68;7.90;;;8.00;49.00;;;;;;5016391;28;20105;-77
2020/12/11 10:56:47;;;;;;;12.45;8.93;;;7.90;48.80;;;;;;5016334;28;20467;-76
2020/12/11 10:59:14;;;;;;;15.40;7.78;;;7.60;48.70;;;;;;5016164;28;20125;-77
2020/12/11 11:01:40;;;;;;;10.85;7.22;;;7.30;49.20;;;;;;5015976;28;20061;-77
2020/12/11 11:04:07;;;;;;;9.32;6.97;;;7.00;49.80;;;;;;5016350;28;20048;-77
2020/12/11 11:06:39;;;;;;;9.43;7.15;;;6.80;50.40;;;;;;5016820;28;20072;-76
2020/12/11 11:11:41;;;;;;;10.23;7.47;;;6.70;51.80;;;;;;5018180;28;20033;-77
2020/12/11 11:17:02;;;;;;;10.20;7.60;;;7.30;50.90;;;;;;5016487;28;20036;-78
2020/12/11 11:22:17;;;;;;;12.80;7.93;;;8.10;49.10;;;;;;5016674;28;20037;-79
2020/12/11 11:30:04;;;;;;;10.30;6.97;;;10.20;45.80;;;;;;5016118;28;20022;-77
2020/12/11 11:32:30;;;;;;;9.50;6.40;;;11.40;44.00;;;;;;5016093;28;20092;-75
2020/12/11 11:34:55;;;;;;;7.45;5.82;;;11.90;42.40;;;;;;5015796;28;20134;-77
2020/12/11 11:37:24;;;;;;;7.55;5.85;;;11.80;41.10;;;;;;5016081;28;20018;-78
2020/12/11 11:39:49;;;;;;;6.88;5.05;;;11.30;40.60;;;;;;5016197;28;20030;-76
2020/12/11 11:42:16;;;;;;;6.97;5.60;;;10.70;40.90;;;;;;5016491;28;20088;-77
2020/12/11 11:44:55;;;;;;;7.85;5.82;;;10.00;41.70;;;;;;5017284;28;20034;-76
2020/12/11 11:47:21;;;;;;;7.50;5.65;;;9.40;43.00;;;;;;5017167;28;20021;-78
2020/12/11 11:54:50;;;;;;;8.32;4.70;;;8.60;47.10;;;;;;5018135;28;20030;-80
2020/12/11 11:57:16;;;;;;;7.80;5.63;;;9.50;47.40;;;;;;5017247;28;20108;-78
2020/12/11 11:59:43;;;;;;;7.20;5.28;;;10.50;45.60;;;;;;5016082;28;20058;-78
2020/12/11 12:02:08;;;;;;;6.63;5.35;;;11.20;43.60;;;;;;5015002;28;20041;-79
2020/12/11 12:04:34;;;;;;;7.28;5.53;;;10.80;42.10;;;;;;5015261;28;20030;-81
2020/12/11 12:07:00;;;;;;;6.95;5.68;;;9.60;42.20;;;;;;4997405;28;20030;-81
2020/12/11 12:09:25;;;;;;;9.00;6.22;;;8.50;43.80;;;;;;5015025;28;20026;-81
2020/12/11 12:11:51;;;;;;;7.10;5.78;;;7.60;46.20;;;;;;5015347;28;20022;-80
2020/12/11 12:14:17;;;;;;;7.78;5.63;;;6.90;48.70;;;;;;5015376;28;20029;-81
2020/12/11 12:16:44;;;;;;;8.52;5.85;;;6.30;51.40;;;;;;5015628;28;20033;-84
2020/12/11 12:19:16;;;;;;;9.45;6.30;;;6.20;53.60;;;;;;4997678;28;20498;-82
2020/12/11 12:27:25;;;;;;;9.98;6.18;;;6.90;54.00;;;;;;5015425;28;20037;-80
2020/12/11 12:29:52;;;;;;;8.57;6.25;;;7.30;52.80;;;;;;4997298;28;20058;-83
2020/12/11 12:32:19;;;;;;;10.48;7.50;;;7.50;52.00;;;;;;5015042;28;20020;-81
2020/12/11 12:34:49;;;;;;;10.15;7.47;;;7.40;51.50;;;;;;4997323;28;20034;-81
2020/12/11 12:44:47;;;;;;;11.35;7.57;;;5.00;56.20;;;;;;5014967;28;20022;-79
2020/12/11 12:47:12;;;;;;;10.57;7.35;;;4.70;58.70;;;;;;5014713;28;20086;-79
2020/12/11 12:49:38;;;;;;;10.85;7.65;;;4.50;60.50;;;;;;5015811;28;20057;-79
2020/12/11 12:52:04;;;;;;;13.02;8.57;;;4.20;62.10;;;;;;5017002;28;20108;-80
2020/12/11 12:54:29;;;;;;;12.10;8.13;;;4.10;63.30;;;;;;5016955;28;20100;-79
2020/12/11 12:56:58;;;;;;;11.10;7.18;;;4.10;64.10;;;;;;5015684;28;20026;-79
2020/12/11 13:00:03;;;;;;;14.40;8.55;;;4.00;64.00;;;;;;5017009;28;20022;-80
2020/12/11 13:02:32;;;;;;;15.20;9.68;;;4.00;64.00;;;;;;5019084;28;20045;-77
2020/12/11 13:05:18;;;;;;;12.80;8.48;;;3.90;64.60;;;;;;5012083;28;20025;-79
2020/12/11 13:07:43;;;;;;;15.90;8.20;;;4.10;64.20;;;;;;5031986;28;20033;-80
2020/12/11 13:10:09;;;;;;;11.82;7.40;;;4.20;63.70;;;;;;5029291;28;20036;-78
2020/12/11 13:12:34;;;;;;;11.05;7.78;;;4.30;63.00;;;;;;5025547;28;20551;-79
2020/12/11 13:15:00;;;;;;;12.50;8.20;;;4.30;63.00;;;;;;5002658;28;20030;-81
2020/12/11 13:17:26;;;;;;;14.10;8.90;;;4.20;63.20;;;;;;5019890;28;20040;-79
2020/12/11 13:19:53;;;;;;;13.13;7.13;;;4.00;63.10;;;;;;5015217;28;20454;-78
2020/12/11 13:27:43;;;;;;;13.45;8.75;;;3.80;63.20;;;;;;5014636;28;20080;-79
2020/12/11 13:30:09;;;;;;;11.50;7.63;;;3.80;63.80;;;;;;5014300;28;20426;-81
2020/12/11 13:32:35;;;;;;;10.63;7.30;;;3.80;64.00;;;;;;4996322;28;20117;-78